sensor_id;sensor_type;location;lat;lon;timestamp;temperature;humidity
39021;DHT22;25188;51.958;5.842;2022-10-31T00:02:22;13.90;99.90
39021;DHT22;25188;51.958;5.842;2022-10-31T00:04:50;13.90;99.90
39021;DHT22;25188;51.958;5.842;2022-10-31T00:07:16;13.90;99.90
39021;DHT22;25188;51.958;5.842;2022-10-31T00:09:42;13.80;99.90
39021;DHT22;25188;51.958;5.842;2022-10-31T00:12:07;13.80;99.90
39021;DHT22;25188;51.958;5.842;2022-10-31T00:14:33;13.80;99.90
39021;DHT22;25188;51.958;5.842;2022-10-31T00:16:59;13.80;99.90
39021;DHT22;25188;51.958;5.842;2022-10-31T00:19:24;13.70;99.90
39021;DHT22;25188;51.958;5.842;2022-10-31T00:21:51;13.80;99.90
39021;DHT22;25188;51.958;5.842;2022-10-31T00:24:17;13.70;99.90
39021;DHT22;25188;51.958;5.842;2022-10-31T00:26:43;13.70;99.90
39021;DHT22;25188;51.958;5.842;2022-10-31T00:29:08;13.70;99.90
39021;DHT22;25188;51.958;5.842;2022-10-31T00:31:34;13.60;99.90
39021;DHT22;25188;51.958;5.842;2022-10-31T00:34:00;13.60;99.90
39021;DHT22;25188;51.958;5.842;2022-10-31T00:36:28;13.60;99.90
39021;DHT22;25188;51.958;5.842;2022-10-31T00:38:53;13.60;99.90
39021;DHT22;25188;51.958;5.842;2022-10-31T00:41:22;13.60;99.90
39021;DHT22;25188;51.958;5.842;2022-10-31T00:43:47;13.70;99.90
39021;DHT22;25188;51.958;5.842;2022-10-31T00:46:13;13.60;99.90
39021;DHT22;25188;51.958;5.842;2022-10-31T00:48:39;13.60;99.90
39021;DHT22;25188;51.958;5.842;2022-10-31T00:51:05;13.60;99.90
39021;DHT22;25188;51.958;5.842;2022-10-31T00:53:31;13.50;99.90
39021;DHT22;25188;51.958;5.842;2022-10-31T00:55:56;13.50;99.90
39021;DHT22;25188;51.958;5.842;2022-10-31T00:58:22;13.50;99.90
39021;DHT22;25188;51.958;5.842;2022-10-31T01:00:48;13.50;99.90
39021;DHT22;25188;51.958;5.842;2022-10-31T01:03:21;13.50;99.90
39021;DHT22;25188;51.958;5.842;2022-10-31T01:05:58;13.50;99.90
39021;DHT22;25188;51.958;5.842;2022-10-31T01:08:27;13.50;99.90
39021;DHT22;25188;51.958;5.842;2022-10-31T01:13:35;13.50;99.90
39021;DHT22;25188;51.958;5.842;2022-10-31T01:16:03;13.50;99.90
39021;DHT22;25188;51.958;5.842;2022-10-31T01:18:32;13.40;99.90
39021;DHT22;25188;51.958;5.842;2022-10-31T01:21:22;13.40;99.90
39021;DHT22;25188;51.958;5.842;2022-10-31T01:23:49;13.40;99.90
39021;DHT22;25188;51.958;5.842;2022-10-31T01:26:17;13.40;99.90
39021;DHT22;25188;51.958;5.842;2022-10-31T01:28:47;13.30;99.90
39021;DHT22;25188;51.958;5.842;2022-10-31T01:31:14;13.30;99.90
39021;DHT22;25188;51.958;5.842;2022-10-31T01:33:42;13.30;99.90
39021;DHT22;25188;51.958;5.842;2022-10-31T01:36:21;13.30;99.90
39021;DHT22;25188;51.958;5.842;2022-10-31T01:38:51;13.30;99.90
39021;DHT22;25188;51.958;5.842;2022-10-31T01:41:21;13.20;99.90
39021;DHT22;25188;51.958;5.842;2022-10-31T01:43:49;13.20;99.90
39021;DHT22;25188;51.958;5.842;2022-10-31T01:46:19;13.20;99.90
39021;DHT22;25188;51.958;5.842;2022-10-31T01:48:48;13.10;99.90
39021;DHT22;25188;51.958;5.842;2022-10-31T01:51:16;13.10;99.90
39021;DHT22;25188;51.958;5.842;2022-10-31T01:53:44;13.20;99.90
39021;DHT22;25188;51.958;5.842;2022-10-31T01:56:11;13.10;99.90
39021;DHT22;25188;51.958;5.842;2022-10-31T01:58:37;13.10;99.90
39021;DHT22;25188;51.958;5.842;2022-10-31T02:01:03;13.10;99.90
39021;DHT22;25188;51.958;5.842;2022-10-31T02:03:29;13.10;99.90
39021;DHT22;25188;51.958;5.842;2022-10-31T02:06:16;13.10;99.90
39021;DHT22;25188;51.958;5.842;2022-10-31T02:08:45;13.00;99.90
39021;DHT22;25188;51.958;5.842;2022-10-31T02:11:11;13.00;99.90
39021;DHT22;25188;51.958;5.842;2022-10-31T02:13:37;13.10;99.90
39021;DHT22;25188;51.958;5.842;2022-10-31T02:16:03;13.10;99.90
39021;DHT22;25188;51.958;5.842;2022-10-31T02:18:31;13.00;99.90
39021;DHT22;25188;51.958;5.842;2022-10-31T02:21:19;13.00;99.90
39021;DHT22;25188;51.958;5.842;2022-10-31T02:36:14;12.90;99.90
39021;DHT22;25188;51.958;5.842;2022-10-31T02:38:52;12.90;99.90
39021;DHT22;25188;51.958;5.842;2022-10-31T02:47:22;12.80;99.90
39021;DHT22;25188;51.958;5.842;2022-10-31T02:50:23;12.80;99.90
39021;DHT22;25188;51.958;5.842;2022-10-31T02:52:52;12.70;99.90
39021;DHT22;25188;51.958;5.842;2022-10-31T02:57:56;12.60;99.90
39021;DHT22;25188;51.958;5.842;2022-10-31T03:00:23;12.60;99.90
39021;DHT22;25188;51.958;5.842;2022-10-31T03:08:07;12.50;99.90
39021;DHT22;25188;51.958;5.842;2022-10-31T03:10:50;12.50;99.90
39021;DHT22;25188;51.958;5.842;2022-10-31T03:16:26;12.40;99.90
39021;DHT22;25188;51.958;5.842;2022-10-31T03:21:42;12.40;99.90
39021;DHT22;25188;51.958;5.842;2022-10-31T03:24:10;12.30;99.90
39021;DHT22;25188;51.958;5.842;2022-10-31T03:26:40;12.30;99.90
39021;DHT22;25188;51.958;5.842;2022-10-31T03:29:08;12.30;99.90
39021;DHT22;25188;51.958;5.842;2022-10-31T03:31:49;12.20;99.90
39021;DHT22;25188;51.958;5.842;2022-10-31T03:34:18;12.20;99.90
39021;DHT22;25188;51.958;5.842;2022-10-31T03:36:47;12.20;99.90
39021;DHT22;25188;51.958;5.842;2022-10-31T03:39:15;12.10;99.90
39021;DHT22;25188;51.958;5.842;2022-10-31T03:41:54;12.10;99.90
39021;DHT22;25188;51.958;5.842;2022-10-31T03:44:21;12.10;99.90
39021;DHT22;25188;51.958;5.842;2022-10-31T03:46:55;12.00;99.90
39021;DHT22;25188;51.958;5.842;2022-10-31T03:49:21;12.00;99.90
39021;DHT22;25188;51.958;5.842;2022-10-31T03:52:02;12.00;99.90
39021;DHT22;25188;51.958;5.842;2022-10-31T03:54:44;12.00;99.90
39021;DHT22;25188;51.958;5.842;2022-10-31T03:59:45;12.00;99.90
39021;DHT22;25188;51.958;5.842;2022-10-31T04:02:16;11.90;99.90
39021;DHT22;25188;51.958;5.842;2022-10-31T04:04:43;11.90;99.90
39021;DHT22;25188;51.958;5.842;2022-10-31T04:07:10;11.90;99.90
39021;DHT22;25188;51.958;5.842;2022-10-31T04:09:39;11.90;99.90
39021;DHT22;25188;51.958;5.842;2022-10-31T04:12:08;11.90;99.90
39021;DHT22;25188;51.958;5.842;2022-10-31T04:14:38;11.80;99.90
39021;DHT22;25188;51.958;5.842;2022-10-31T04:17:10;11.80;99.90
39021;DHT22;25188;51.958;5.842;2022-10-31T04:19:37;11.80;99.90
39021;DHT22;25188;51.958;5.842;2022-10-31T04:22:03;11.80;99.90
39021;DHT22;25188;51.958;5.842;2022-10-31T04:24:31;11.80;99.90
39021;DHT22;25188;51.958;5.842;2022-10-31T04:26:56;11.70;99.90
39021;DHT22;25188;51.958;5.842;2022-10-31T04:29:22;11.60;99.90
39021;DHT22;25188;51.958;5.842;2022-10-31T04:31:48;11.70;99.90
39021;DHT22;25188;51.958;5.842;2022-10-31T04:34:16;11.60;99.90
39021;DHT22;25188;51.958;5.842;2022-10-31T04:36:41;11.60;99.90
39021;DHT22;25188;51.958;5.842;2022-10-31T04:39:07;11.50;99.90
39021;DHT22;25188;51.958;5.842;2022-10-31T04:41:36;11.60;99.90
39021;DHT22;25188;51.958;5.842;2022-10-31T04:44:01;11.50;99.90
39021;DHT22;25188;51.958;5.842;2022-10-31T04:46:27;11.50;99.90
39021;DHT22;25188;51.958;5.842;2022-10-31T04:48:53;11.50;99.90
39021;DHT22;25188;51.958;5.842;2022-10-31T04:51:18;11.50;99.90
39021;DHT22;25188;51.958;5.842;2022-10-31T04:53:44;11.50;99.90
39021;DHT22;25188;51.958;5.842;2022-10-31T04:56:09;11.40;99.90
39021;DHT22;25188;51.958;5.842;2022-10-31T04:58:35;11.50;99.90
39021;DHT22;25188;51.958;5.842;2022-10-31T05:01:01;11.40;99.90
39021;DHT22;25188;51.958;5.842;2022-10-31T05:03:26;11.40;99.90
39021;DHT22;25188;51.958;5.842;2022-10-31T05:05:52;11.40;99.90
39021;DHT22;25188;51.958;5.842;2022-10-31T05:08:18;11.30;99.90
39021;DHT22;25188;51.958;5.842;2022-10-31T05:10:43;11.30;99.90
39021;DHT22;25188;51.958;5.842;2022-10-31T05:13:09;11.30;99.90
39021;DHT22;25188;51.958;5.842;2022-10-31T05:15:35;11.30;99.90
39021;DHT22;25188;51.958;5.842;2022-10-31T05:18:01;11.30;99.90
39021;DHT22;25188;51.958;5.842;2022-10-31T05:20:28;11.30;99.90
39021;DHT22;25188;51.958;5.842;2022-10-31T05:22:56;11.30;99.90
39021;DHT22;25188;51.958;5.842;2022-10-31T05:25:24;11.30;99.90
39021;DHT22;25188;51.958;5.842;2022-10-31T05:27:52;11.20;99.90
39021;DHT22;25188;51.958;5.842;2022-10-31T05:30:23;11.20;99.90
39021;DHT22;25188;51.958;5.842;2022-10-31T05:32:50;11.30;99.90
39021;DHT22;25188;51.958;5.842;2022-10-31T05:35:19;11.20;99.90
39021;DHT22;25188;51.958;5.842;2022-10-31T05:37:45;11.30;99.90
39021;DHT22;25188;51.958;5.842;2022-10-31T05:40:12;11.20;99.90
39021;DHT22;25188;51.958;5.842;2022-10-31T05:42:39;11.30;99.90
39021;DHT22;25188;51.958;5.842;2022-10-31T05:45:10;11.30;99.90
39021;DHT22;25188;51.958;5.842;2022-10-31T05:47:36;11.30;99.90
39021;DHT22;25188;51.958;5.842;2022-10-31T05:50:02;11.30;99.90
39021;DHT22;25188;51.958;5.842;2022-10-31T05:52:28;11.30;99.90
39021;DHT22;25188;51.958;5.842;2022-10-31T05:54:53;11.20;99.90
39021;DHT22;25188;51.958;5.842;2022-10-31T05:57:19;11.30;99.90
39021;DHT22;25188;51.958;5.842;2022-10-31T05:59:47;11.30;99.90
39021;DHT22;25188;51.958;5.842;2022-10-31T06:02:13;11.30;99.90
39021;DHT22;25188;51.958;5.842;2022-10-31T06:04:38;11.30;99.90
39021;DHT22;25188;51.958;5.842;2022-10-31T06:07:04;11.30;99.90
39021;DHT22;25188;51.958;5.842;2022-10-31T06:09:29;11.30;99.90
39021;DHT22;25188;51.958;5.842;2022-10-31T06:11:55;11.30;99.90
39021;DHT22;25188;51.958;5.842;2022-10-31T06:14:28;11.30;99.90
39021;DHT22;25188;51.958;5.842;2022-10-31T06:16:55;11.30;99.90
39021;DHT22;25188;51.958;5.842;2022-10-31T06:19:20;11.30;99.90
39021;DHT22;25188;51.958;5.842;2022-10-31T06:21:46;11.30;99.90
39021;DHT22;25188;51.958;5.842;2022-10-31T06:24:12;11.20;99.90
39021;DHT22;25188;51.958;5.842;2022-10-31T06:26:37;11.20;99.90
39021;DHT22;25188;51.958;5.842;2022-10-31T06:29:03;11.20;99.90
39021;DHT22;25188;51.958;5.842;2022-10-31T06:31:29;11.20;99.90
39021;DHT22;25188;51.958;5.842;2022-10-31T06:33:54;11.20;99.90
39021;DHT22;25188;51.958;5.842;2022-10-31T06:36:20;11.20;99.90
39021;DHT22;25188;51.958;5.842;2022-10-31T06:38:46;11.30;99.90
39021;DHT22;25188;51.958;5.842;2022-10-31T06:41:11;11.20;99.90
39021;DHT22;25188;51.958;5.842;2022-10-31T06:43:37;11.20;99.90
39021;DHT22;25188;51.958;5.842;2022-10-31T06:46:04;11.20;99.90
39021;DHT22;25188;51.958;5.842;2022-10-31T06:48:31;11.20;99.90
39021;DHT22;25188;51.958;5.842;2022-10-31T06:50:58;11.10;99.90
39021;DHT22;25188;51.958;5.842;2022-10-31T06:53:25;11.20;99.90
39021;DHT22;25188;51.958;5.842;2022-10-31T06:55:54;11.20;99.90
39021;DHT22;25188;51.958;5.842;2022-10-31T06:58:20;11.20;99.90
39021;DHT22;25188;51.958;5.842;2022-10-31T07:00:45;11.20;99.90
39021;DHT22;25188;51.958;5.842;2022-10-31T07:03:12;11.20;99.90
39021;DHT22;25188;51.958;5.842;2022-10-31T07:05:39;11.30;99.90
39021;DHT22;25188;51.958;5.842;2022-10-31T07:08:06;11.20;99.90
39021;DHT22;25188;51.958;5.842;2022-10-31T07:10:34;11.20;99.90
39021;DHT22;25188;51.958;5.842;2022-10-31T07:13:02;11.20;99.90
39021;DHT22;25188;51.958;5.842;2022-10-31T07:15:32;11.20;99.90
39021;DHT22;25188;51.958;5.842;2022-10-31T07:18:02;11.30;99.90
39021;DHT22;25188;51.958;5.842;2022-10-31T07:20:29;11.30;99.90
39021;DHT22;25188;51.958;5.842;2022-10-31T07:22:54;11.40;99.90
39021;DHT22;25188;51.958;5.842;2022-10-31T07:25:21;11.40;99.90
39021;DHT22;25188;51.958;5.842;2022-10-31T07:27:47;11.50;99.90
39021;DHT22;25188;51.958;5.842;2022-10-31T07:30:13;11.60;99.90
39021;DHT22;25188;51.958;5.842;2022-10-31T07:32:47;11.60;99.90
39021;DHT22;25188;51.958;5.842;2022-10-31T07:35:17;11.70;99.90
39021;DHT22;25188;51.958;5.842;2022-10-31T07:37:43;11.70;99.90
39021;DHT22;25188;51.958;5.842;2022-10-31T07:40:09;11.80;99.90
39021;DHT22;25188;51.958;5.842;2022-10-31T07:42:43;11.90;99.90
39021;DHT22;25188;51.958;5.842;2022-10-31T07:45:11;12.00;99.90
39021;DHT22;25188;51.958;5.842;2022-10-31T07:47:48;12.00;99.90
39021;DHT22;25188;51.958;5.842;2022-10-31T07:50:16;12.00;99.90
39021;DHT22;25188;51.958;5.842;2022-10-31T07:52:45;12.10;99.90
39021;DHT22;25188;51.958;5.842;2022-10-31T07:55:14;12.10;99.90
39021;DHT22;25188;51.958;5.842;2022-10-31T07:57:40;12.20;99.90
39021;DHT22;25188;51.958;5.842;2022-10-31T08:00:10;12.30;99.90
39021;DHT22;25188;51.958;5.842;2022-10-31T08:02:35;12.40;99.90
39021;DHT22;25188;51.958;5.842;2022-10-31T08:05:10;12.50;99.90
39021;DHT22;25188;51.958;5.842;2022-10-31T08:07:41;12.50;99.90
39021;DHT22;25188;51.958;5.842;2022-10-31T08:10:09;12.60;99.90
39021;DHT22;25188;51.958;5.842;2022-10-31T08:12:47;12.70;99.90
39021;DHT22;25188;51.958;5.842;2022-10-31T08:15:22;12.80;99.90
39021;DHT22;25188;51.958;5.842;2022-10-31T08:17:48;12.90;99.90
39021;DHT22;25188;51.958;5.842;2022-10-31T08:20:13;13.00;99.90
39021;DHT22;25188;51.958;5.842;2022-10-31T08:22:41;13.00;99.90
39021;DHT22;25188;51.958;5.842;2022-10-31T08:25:08;13.10;99.90
39021;DHT22;25188;51.958;5.842;2022-10-31T08:27:34;13.20;99.90
39021;DHT22;25188;51.958;5.842;2022-10-31T08:29:59;13.20;99.90
39021;DHT22;25188;51.958;5.842;2022-10-31T08:32:25;13.30;99.90
39021;DHT22;25188;51.958;5.842;2022-10-31T08:34:51;13.40;99.90
39021;DHT22;25188;51.958;5.842;2022-10-31T08:37:16;13.40;99.90
39021;DHT22;25188;51.958;5.842;2022-10-31T08:39:48;13.50;99.90
39021;DHT22;25188;51.958;5.842;2022-10-31T08:42:13;13.50;99.90
39021;DHT22;25188;51.958;5.842;2022-10-31T08:44:39;13.60;99.90
39021;DHT22;25188;51.958;5.842;2022-10-31T08:47:05;13.60;99.90
39021;DHT22;25188;51.958;5.842;2022-10-31T08:49:30;13.80;99.90
39021;DHT22;25188;51.958;5.842;2022-10-31T08:51:56;13.80;99.90
39021;DHT22;25188;51.958;5.842;2022-10-31T08:54:22;14.00;99.90
39021;DHT22;25188;51.958;5.842;2022-10-31T08:56:47;14.10;99.90
39021;DHT22;25188;51.958;5.842;2022-10-31T08:59:13;14.30;99.90
39021;DHT22;25188;51.958;5.842;2022-10-31T09:01:39;14.30;99.90
39021;DHT22;25188;51.958;5.842;2022-10-31T09:04:04;14.40;99.90
39021;DHT22;25188;51.958;5.842;2022-10-31T09:06:30;14.60;99.90
39021;DHT22;25188;51.958;5.842;2022-10-31T09:08:56;14.70;99.90
39021;DHT22;25188;51.958;5.842;2022-10-31T09:11:21;14.80;99.90
39021;DHT22;25188;51.958;5.842;2022-10-31T09:13:47;14.90;99.90
39021;DHT22;25188;51.958;5.842;2022-10-31T09:16:13;15.00;99.90
39021;DHT22;25188;51.958;5.842;2022-10-31T09:18:38;15.10;99.90
39021;DHT22;25188;51.958;5.842;2022-10-31T09:21:04;15.30;99.90
39021;DHT22;25188;51.958;5.842;2022-10-31T09:23:30;15.40;99.90
39021;DHT22;25188;51.958;5.842;2022-10-31T09:25:59;15.50;99.90
39021;DHT22;25188;51.958;5.842;2022-10-31T09:28:27;15.50;99.90
39021;DHT22;25188;51.958;5.842;2022-10-31T09:30:55;15.60;99.90
39021;DHT22;25188;51.958;5.842;2022-10-31T09:33:21;15.70;99.90
39021;DHT22;25188;51.958;5.842;2022-10-31T09:35:47;15.70;99.90
39021;DHT22;25188;51.958;5.842;2022-10-31T09:38:18;15.80;99.90
39021;DHT22;25188;51.958;5.842;2022-10-31T09:40:47;15.80;99.90
39021;DHT22;25188;51.958;5.842;2022-10-31T09:51:08;16.00;99.90
39021;DHT22;25188;51.958;5.842;2022-10-31T09:56:16;16.10;99.90
39021;DHT22;25188;51.958;5.842;2022-10-31T09:58:46;16.20;99.90
39021;DHT22;25188;51.958;5.842;2022-10-31T10:06:47;16.30;99.90
39021;DHT22;25188;51.958;5.842;2022-10-31T10:09:15;16.30;99.90
39021;DHT22;25188;51.958;5.842;2022-10-31T10:11:45;16.30;99.90
39021;DHT22;25188;51.958;5.842;2022-10-31T10:20:04;16.80;99.90
39021;DHT22;25188;51.958;5.842;2022-10-31T10:23:11;16.80;99.90
39021;DHT22;25188;51.958;5.842;2022-10-31T10:25:40;16.90;99.90
39021;DHT22;25188;51.958;5.842;2022-10-31T10:28:23;16.90;99.90
39021;DHT22;25188;51.958;5.842;2022-10-31T10:31:01;16.90;99.90
39021;DHT22;25188;51.958;5.842;2022-10-31T10:33:38;16.80;99.90
39021;DHT22;25188;51.958;5.842;2022-10-31T10:36:27;16.90;99.90
39021;DHT22;25188;51.958;5.842;2022-10-31T10:38:59;16.90;99.90
39021;DHT22;25188;51.958;5.842;2022-10-31T10:41:31;16.80;99.90
39021;DHT22;25188;51.958;5.842;2022-10-31T10:43:57;16.80;99.90
39021;DHT22;25188;51.958;5.842;2022-10-31T10:49:19;16.70;99.60
39021;DHT22;25188;51.958;5.842;2022-10-31T10:57:27;17.00;99.90
39021;DHT22;25188;51.958;5.842;2022-10-31T10:59:54;17.20;99.90
39021;DHT22;25188;51.958;5.842;2022-10-31T11:02:24;17.60;99.90
39021;DHT22;25188;51.958;5.842;2022-10-31T11:04:53;17.90;99.90
39021;DHT22;25188;51.958;5.842;2022-10-31T11:07:19;18.10;99.90
39021;DHT22;25188;51.958;5.842;2022-10-31T11:09:45;18.40;99.90
39021;DHT22;25188;51.958;5.842;2022-10-31T11:12:32;18.70;99.80
39021;DHT22;25188;51.958;5.842;2022-10-31T11:15:06;18.90;98.50
39021;DHT22;25188;51.958;5.842;2022-10-31T11:17:40;18.90;97.80
39021;DHT22;25188;51.958;5.842;2022-10-31T11:22:37;19.20;96.70
39021;DHT22;25188;51.958;5.842;2022-10-31T11:25:23;19.30;96.10
39021;DHT22;25188;51.958;5.842;2022-10-31T11:28:00;19.30;95.30
39021;DHT22;25188;51.958;5.842;2022-10-31T11:30:26;19.30;94.60
39021;DHT22;25188;51.958;5.842;2022-10-31T11:32:52;19.30;94.30
39021;DHT22;25188;51.958;5.842;2022-10-31T11:35:22;19.30;93.90
39021;DHT22;25188;51.958;5.842;2022-10-31T11:37:50;19.30;93.60
39021;DHT22;25188;51.958;5.842;2022-10-31T11:40:22;19.40;93.20
39021;DHT22;25188;51.958;5.842;2022-10-31T11:42:49;19.40;92.80
39021;DHT22;25188;51.958;5.842;2022-10-31T11:47:47;19.60;92.20
39021;DHT22;25188;51.958;5.842;2022-10-31T11:50:39;19.60;91.80
39021;DHT22;25188;51.958;5.842;2022-10-31T11:53:16;19.60;91.50
39021;DHT22;25188;51.958;5.842;2022-10-31T11:55:45;19.70;91.10
39021;DHT22;25188;51.958;5.842;2022-10-31T11:58:25;19.70;90.70
39021;DHT22;25188;51.958;5.842;2022-10-31T12:00:53;19.60;90.40
39021;DHT22;25188;51.958;5.842;2022-10-31T12:08:43;19.50;90.20
39021;DHT22;25188;51.958;5.842;2022-10-31T12:11:38;19.40;90.30
39021;DHT22;25188;51.958;5.842;2022-10-31T12:16:48;19.60;90.40
39021;DHT22;25188;51.958;5.842;2022-10-31T12:22:20;20.10;90.50
39021;DHT22;25188;51.958;5.842;2022-10-31T12:30:33;20.30;87.30
39021;DHT22;25188;51.958;5.842;2022-10-31T12:35:48;20.20;86.30
39021;DHT22;25188;51.958;5.842;2022-10-31T12:44:06;20.10;86.50
39021;DHT22;25188;51.958;5.842;2022-10-31T12:46:48;20.10;86.90
39021;DHT22;25188;51.958;5.842;2022-10-31T12:58:02;20.80;85.80
39021;DHT22;25188;51.958;5.842;2022-10-31T13:00:20;20.80;85.50
39021;DHT22;25188;51.958;5.842;2022-10-31T13:05:49;20.90;85.30
39021;DHT22;25188;51.958;5.842;2022-10-31T13:08:24;21.20;85.90
39021;DHT22;25188;51.958;5.842;2022-10-31T13:11:08;21.70;85.80
39021;DHT22;25188;51.958;5.842;2022-10-31T13:13:51;22.20;84.70
39021;DHT22;25188;51.958;5.842;2022-10-31T13:16:28;22.40;82.70
39021;DHT22;25188;51.958;5.842;2022-10-31T13:18:58;22.50;81.40
39021;DHT22;25188;51.958;5.842;2022-10-31T13:21:30;22.50;81.20
39021;DHT22;25188;51.958;5.842;2022-10-31T13:23:59;22.60;80.30
39021;DHT22;25188;51.958;5.842;2022-10-31T13:26:49;22.60;78.80
39021;DHT22;25188;51.958;5.842;2022-10-31T13:29:27;22.50;78.00
39021;DHT22;25188;51.958;5.842;2022-10-31T13:31:54;22.30;77.90
39021;DHT22;25188;51.958;5.842;2022-10-31T13:34:28;22.20;77.40
39021;DHT22;25188;51.958;5.842;2022-10-31T13:37:01;22.00;77.40
39021;DHT22;25188;51.958;5.842;2022-10-31T13:39:49;21.90;77.70
39021;DHT22;25188;51.958;5.842;2022-10-31T13:45:21;21.60;78.40
39021;DHT22;25188;51.958;5.842;2022-10-31T13:50:41;21.30;78.00
39021;DHT22;25188;51.958;5.842;2022-10-31T13:53:20;21.10;78.00
39021;DHT22;25188;51.958;5.842;2022-10-31T13:55:49;21.00;78.10
39021;DHT22;25188;51.958;5.842;2022-10-31T13:58:28;20.90;78.30
39021;DHT22;25188;51.958;5.842;2022-10-31T14:00:59;20.90;78.50
39021;DHT22;25188;51.958;5.842;2022-10-31T14:03:25;20.80;78.60
39021;DHT22;25188;51.958;5.842;2022-10-31T14:05:54;20.70;78.70
39021;DHT22;25188;51.958;5.842;2022-10-31T14:08:23;20.60;78.70
39021;DHT22;25188;51.958;5.842;2022-10-31T14:10:51;20.60;78.80
39021;DHT22;25188;51.958;5.842;2022-10-31T14:13:20;20.50;78.80
39021;DHT22;25188;51.958;5.842;2022-10-31T14:18:31;20.30;79.20
39021;DHT22;25188;51.958;5.842;2022-10-31T14:20:58;20.30;79.40
39021;DHT22;25188;51.958;5.842;2022-10-31T14:28:50;20.00;80.10
39021;DHT22;25188;51.958;5.842;2022-10-31T14:33:59;19.90;80.70
39021;DHT22;25188;51.958;5.842;2022-10-31T14:52:51;19.40;82.20
39021;DHT22;25188;51.958;5.842;2022-10-31T14:55:18;19.30;82.40
39021;DHT22;25188;51.958;5.842;2022-10-31T14:57:56;19.40;82.70
39021;DHT22;25188;51.958;5.842;2022-10-31T15:00:23;19.30;82.90
39021;DHT22;25188;51.958;5.842;2022-10-31T15:03:16;19.20;83.10
39021;DHT22;25188;51.958;5.842;2022-10-31T15:05:53;19.20;83.40
39021;DHT22;25188;51.958;5.842;2022-10-31T15:11:03;19.10;83.90
39021;DHT22;25188;51.958;5.842;2022-10-31T15:13:29;19.00;84.00
39021;DHT22;25188;51.958;5.842;2022-10-31T15:15:55;19.00;84.20
39021;DHT22;25188;51.958;5.842;2022-10-31T15:18:24;18.90;84.50
39021;DHT22;25188;51.958;5.842;2022-10-31T15:20:51;18.90;84.70
39021;DHT22;25188;51.958;5.842;2022-10-31T15:23:23;18.80;85.00
39021;DHT22;25188;51.958;5.842;2022-10-31T15:25:50;18.70;85.30
39021;DHT22;25188;51.958;5.842;2022-10-31T15:28:22;18.70;85.50
39021;DHT22;25188;51.958;5.842;2022-10-31T15:30:54;18.70;85.80
39021;DHT22;25188;51.958;5.842;2022-10-31T15:33:24;18.60;85.90
39021;DHT22;25188;51.958;5.842;2022-10-31T15:35:58;18.50;86.10
39021;DHT22;25188;51.958;5.842;2022-10-31T15:38:24;18.50;86.50
39021;DHT22;25188;51.958;5.842;2022-10-31T15:40:53;18.50;86.70
39021;DHT22;25188;51.958;5.842;2022-10-31T15:43:19;18.50;87.00
39021;DHT22;25188;51.958;5.842;2022-10-31T15:45:45;18.50;87.10
39021;DHT22;25188;51.958;5.842;2022-10-31T15:48:20;18.40;87.20
39021;DHT22;25188;51.958;5.842;2022-10-31T15:50:51;18.40;87.40
39021;DHT22;25188;51.958;5.842;2022-10-31T15:53:43;18.40;88.20
39021;DHT22;25188;51.958;5.842;2022-10-31T15:56:13;18.30;87.80
39021;DHT22;25188;51.958;5.842;2022-10-31T15:58:48;18.20;87.90
39021;DHT22;25188;51.958;5.842;2022-10-31T16:01:25;18.10;88.20
39021;DHT22;25188;51.958;5.842;2022-10-31T16:06:35;18.00;88.70
39021;DHT22;25188;51.958;5.842;2022-10-31T16:09:01;18.00;88.90
39021;DHT22;25188;51.958;5.842;2022-10-31T16:16:20;17.80;89.60
39021;DHT22;25188;51.958;5.842;2022-10-31T16:18:48;17.70;89.90
39021;DHT22;25188;51.958;5.842;2022-10-31T16:21:15;17.70;90.00
39021;DHT22;25188;51.958;5.842;2022-10-31T16:23:53;17.70;90.20
39021;DHT22;25188;51.958;5.842;2022-10-31T16:26:20;17.70;90.30
39021;DHT22;25188;51.958;5.842;2022-10-31T16:28:54;17.60;90.30
39021;DHT22;25188;51.958;5.842;2022-10-31T16:31:49;17.60;90.50
39021;DHT22;25188;51.958;5.842;2022-10-31T16:34:19;17.50;90.60
39021;DHT22;25188;51.958;5.842;2022-10-31T16:36:45;17.40;90.60
39021;DHT22;25188;51.958;5.842;2022-10-31T16:39:11;17.40;90.70
39021;DHT22;25188;51.958;5.842;2022-10-31T16:41:43;17.30;90.80
39021;DHT22;25188;51.958;5.842;2022-10-31T16:44:22;17.20;90.90
39021;DHT22;25188;51.958;5.842;2022-10-31T16:46:51;17.20;91.10
39021;DHT22;25188;51.958;5.842;2022-10-31T16:49:29;17.10;91.10
39021;DHT22;25188;51.958;5.842;2022-10-31T16:51:55;17.10;91.20
39021;DHT22;25188;51.958;5.842;2022-10-31T16:54:20;17.00;91.30
39021;DHT22;25188;51.958;5.842;2022-10-31T16:56:46;17.00;91.50
39021;DHT22;25188;51.958;5.842;2022-10-31T16:59:12;16.90;91.60
39021;DHT22;25188;51.958;5.842;2022-10-31T17:01:40;16.90;91.70
39021;DHT22;25188;51.958;5.842;2022-10-31T17:04:07;16.80;91.80
39021;DHT22;25188;51.958;5.842;2022-10-31T17:06:33;16.80;91.90
39021;DHT22;25188;51.958;5.842;2022-10-31T17:08:58;16.70;92.10
39021;DHT22;25188;51.958;5.842;2022-10-31T17:11:25;16.70;92.20
39021;DHT22;25188;51.958;5.842;2022-10-31T17:13:52;16.60;92.30
39021;DHT22;25188;51.958;5.842;2022-10-31T17:16:18;16.60;92.40
39021;DHT22;25188;51.958;5.842;2022-10-31T17:18:43;16.50;92.50
39021;DHT22;25188;51.958;5.842;2022-10-31T17:21:17;16.50;92.70
39021;DHT22;25188;51.958;5.842;2022-10-31T17:23:43;16.50;92.80
39021;DHT22;25188;51.958;5.842;2022-10-31T17:26:09;16.40;92.90
39021;DHT22;25188;51.958;5.842;2022-10-31T17:28:35;16.40;93.00
39021;DHT22;25188;51.958;5.842;2022-10-31T17:31:01;16.40;93.20
39021;DHT22;25188;51.958;5.842;2022-10-31T17:33:27;16.30;93.30
39021;DHT22;25188;51.958;5.842;2022-10-31T17:35:52;16.30;93.40
39021;DHT22;25188;51.958;5.842;2022-10-31T17:38:18;16.30;93.60
39021;DHT22;25188;51.958;5.842;2022-10-31T17:40:44;16.30;93.70
39021;DHT22;25188;51.958;5.842;2022-10-31T17:43:10;16.20;93.80
39021;DHT22;25188;51.958;5.842;2022-10-31T17:45:39;16.20;93.90
39021;DHT22;25188;51.958;5.842;2022-10-31T17:48:05;16.20;94.10
39021;DHT22;25188;51.958;5.842;2022-10-31T17:50:31;16.20;94.20
39021;DHT22;25188;51.958;5.842;2022-10-31T17:52:57;16.20;94.30
39021;DHT22;25188;51.958;5.842;2022-10-31T17:55:23;16.20;94.40
39021;DHT22;25188;51.958;5.842;2022-10-31T17:57:49;16.20;94.50
39021;DHT22;25188;51.958;5.842;2022-10-31T18:00:17;16.30;94.60
39021;DHT22;25188;51.958;5.842;2022-10-31T18:02:45;16.20;94.70
39021;DHT22;25188;51.958;5.842;2022-10-31T18:05:11;16.20;94.70
39021;DHT22;25188;51.958;5.842;2022-10-31T18:07:37;16.10;94.70
39021;DHT22;25188;51.958;5.842;2022-10-31T18:10:03;16.10;94.80
39021;DHT22;25188;51.958;5.842;2022-10-31T18:12:29;16.10;94.90
39021;DHT22;25188;51.958;5.842;2022-10-31T18:14:57;16.00;94.90
39021;DHT22;25188;51.958;5.842;2022-10-31T18:17:23;16.00;95.00